Time;durP1;ratioP1;P1;durP2;ratioP2;P2;SDS_P1;SDS_P2;PMS_P1;PMS_P2;Temp;Humidity;BMP_temperature;BMP_pressure;BME280_temperature;BME280_humidity;BME280_pressure;Samples;Min_cycle;Max_cycle;Signal;HPM_P1;HPM_P2
2022/03/25 00:02:21;;;;;;;69.63;35.15;;;;;;;;;;5044058;28;20098;-64
2022/03/25 00:04:47;;;;;;;65.20;30.63;;;;;;;;;;5043378;28;20080;-64
2022/03/25 00:07:14;;;;;;;69.38;33.55;;;;;;;;;;5025704;28;20071;-64
2022/03/25 00:09:40;;;;;;;68.13;32.63;;;;;;;;;;5042507;28;20049;-63
2022/03/25 00:12:06;;;;;;;54.10;28.58;;;;;;;;;;5043619;28;20053;-64
2022/03/25 00:14:34;;;;;;;69.25;33.10;;;;;;;;;;5042833;28;20049;-64
2022/03/25 00:17:00;;;;;;;76.10;35.15;;;;;;;;;;5043292;28;20049;-64
2022/03/25 00:19:26;;;;;;;79.32;37.65;;;;;;;;;;5043205;28;20757;-64
2022/03/25 00:21:53;;;;;;;80.85;35.78;;;;;;;;;;5043835;28;20487;-64
2022/03/25 00:24:19;;;;;;;74.57;35.28;;;;;;;;;;5042534;28;20091;-64
2022/03/25 00:26:45;;;;;;;51.60;27.67;;;;;;;;;;5025965;28;20135;-63
2022/03/25 00:29:13;;;;;;;53.65;28.17;;;;;;;;;;5047023;28;20076;-63
2022/03/25 00:31:39;;;;;;;74.22;35.72;;;;;;;;;;5047236;28;20103;-63
2022/03/25 00:34:05;;;;;;;77.03;38.28;;;;;;;;;;5047370;28;20071;-63
2022/03/25 00:36:32;;;;;;;76.65;38.20;;;;;;;;;;5029070;28;20088;-63
2022/03/25 00:38:58;;;;;;;78.82;37.88;;;;;;;;;;5047120;28;20056;-63
2022/03/25 00:41:24;;;;;;;77.20;37.17;;;;;;;;;;5047353;28;20041;-63
2022/03/25 00:43:50;;;;;;;72.60;36.55;;;;;;;;;;5047081;28;20494;-63
2022/03/25 00:46:16;;;;;;;74.45;35.70;;;;;;;;;;5047067;28;20114;-63
2022/03/25 00:48:43;;;;;;;73.55;30.25;;;;;;;;;;5047033;28;20048;-63
2022/03/25 00:51:10;;;;;;;65.95;29.58;;;;;;;;;;5046592;28;20041;-62
2022/03/25 00:53:36;;;;;;;54.13;28.35;;;;;;;;;;5046801;28;20049;-62
2022/03/25 00:56:03;;;;;;;77.38;29.00;;;;;;;;;;5045895;28;20131;-62
2022/03/25 00:58:30;;;;;;;57.00;28.88;;;;;;;;;;5046639;28;20045;-63
2022/03/25 01:00:56;;;;;;;47.47;24.77;;;;;;;;;;5047002;28;20037;-62
2022/03/25 01:03:22;;;;;;;78.63;30.88;;;;;;;;;;5047019;28;20071;-62
2022/03/25 01:05:49;;;;;;;55.45;27.75;;;;;;;;;;5046484;28;20041;-62
2022/03/25 01:08:15;;;;;;;62.13;28.83;;;;;;;;;;5047020;28;20075;-62
2022/03/25 01:10:43;;;;;;;60.03;31.00;;;;;;;;;;5045387;28;20464;-62
2022/03/25 01:13:10;;;;;;;56.55;29.55;;;;;;;;;;5046587;28;20502;-62
2022/03/25 01:15:37;;;;;;;58.80;30.70;;;;;;;;;;5046079;28;20128;-62
2022/03/25 01:18:03;;;;;;;57.20;29.50;;;;;;;;;;5046569;28;20545;-63
2022/03/25 01:20:30;;;;;;;60.35;29.88;;;;;;;;;;5028132;28;20091;-63
2022/03/25 01:22:56;;;;;;;60.95;28.55;;;;;;;;;;5046599;28;20037;-63
2022/03/25 01:25:22;;;;;;;115.65;32.83;;;;;;;;;;5045485;28;20037;-62
2022/03/25 01:27:48;;;;;;;149.65;32.88;;;;;;;;;;5046269;28;20112;-63
2022/03/25 01:30:14;;;;;;;209.10;34.85;;;;;;;;;;5046128;28;20047;-63
2022/03/25 01:32:41;;;;;;;107.50;34.78;;;;;;;;;;5046032;28;20582;-63
2022/03/25 01:35:09;;;;;;;121.20;33.63;;;;;;;;;;5046148;28;20047;-63
2022/03/25 01:37:35;;;;;;;111.05;33.25;;;;;;;;;;5045547;28;20041;-63
2022/03/25 01:40:01;;;;;;;154.02;37.40;;;;;;;;;;5044963;28;20041;-63
2022/03/25 01:42:31;;;;;;;81.22;32.60;;;;;;;;;;5028035;28;20056;-62
2022/03/25 01:44:57;;;;;;;68.65;31.33;;;;;;;;;;5045758;28;20052;-62
2022/03/25 01:47:28;;;;;;;99.85;32.60;;;;;;;;;;5046141;28;20562;-63
2022/03/25 01:49:54;;;;;;;122.78;34.40;;;;;;;;;;5046016;28;20057;-62
2022/03/25 01:52:20;;;;;;;179.00;35.33;;;;;;;;;;5045692;28;20456;-63
2022/03/25 01:54:46;;;;;;;160.48;33.00;;;;;;;;;;5044870;28;20483;-63
2022/03/25 01:57:13;;;;;;;128.98;33.63;;;;;;;;;;5046004;28;20754;-63
2022/03/25 01:59:39;;;;;;;137.82;32.85;;;;;;;;;;5045569;28;20515;-63
2022/03/25 02:02:06;;;;;;;140.45;33.22;;;;;;;;;;5045556;28;20453;-63
2022/03/25 02:04:33;;;;;;;110.32;30.85;;;;;;;;;;5045314;28;20510;-63
2022/03/25 02:06:59;;;;;;;103.15;31.38;;;;;;;;;;5052549;23;20075;-63
2022/03/25 02:09:26;;;;;;;63.90;29.15;;;;;;;;;;5044830;28;20053;-64
2022/03/25 02:11:52;;;;;;;61.80;28.63;;;;;;;;;;5028064;28;20052;-64
2022/03/25 02:14:18;;;;;;;91.82;29.00;;;;;;;;;;5045987;28;20052;-63
2022/03/25 02:16:46;;;;;;;85.07;29.23;;;;;;;;;;5045634;28;20037;-64
2022/03/25 02:19:12;;;;;;;75.22;30.23;;;;;;;;;;5045558;28;20052;-63
2022/03/25 02:21:39;;;;;;;77.90;29.95;;;;;;;;;;5044895;28;20533;-63
2022/03/25 02:24:06;;;;;;;77.80;31.17;;;;;;;;;;5044819;28;20044;-64
2022/03/25 02:26:33;;;;;;;65.22;31.48;;;;;;;;;;5045545;28;20116;-63
2022/03/25 02:29:00;;;;;;;57.80;29.67;;;;;;;;;;5045668;28;20048;-64
2022/03/25 02:31:27;;;;;;;51.45;27.73;;;;;;;;;;5045411;28;20120;-64
2022/03/25 02:33:56;;;;;;;60.53;29.38;;;;;;;;;;5045577;28;20186;-65
2022/03/25 02:36:22;;;;;;;60.15;29.73;;;;;;;;;;5045624;28;20432;-65
2022/03/25 02:38:49;;;;;;;58.45;29.30;;;;;;;;;;5044494;28;20645;-65
2022/03/25 02:41:15;;;;;;;56.38;28.48;;;;;;;;;;5045731;28;20293;-65
2022/03/25 02:43:41;;;;;;;72.38;28.25;;;;;;;;;;5044909;28;20108;-64
2022/03/25 02:46:07;;;;;;;56.80;26.67;;;;;;;;;;5027309;28;20052;-65
2022/03/25 02:48:34;;;;;;;44.70;24.33;;;;;;;;;;5026599;28;20513;-64
2022/03/25 02:51:00;;;;;;;50.95;27.63;;;;;;;;;;5044098;28;20052;-64
2022/03/25 02:53:27;;;;;;;53.40;28.45;;;;;;;;;;5026861;28;20134;-64
2022/03/25 02:55:54;;;;;;;66.05;28.05;;;;;;;;;;5044477;28;20063;-64
2022/03/25 02:58:20;;;;;;;53.53;25.83;;;;;;;;;;5027292;28;20041;-64
2022/03/25 03:00:46;;;;;;;49.47;22.35;;;;;;;;;;5044783;28;20574;-64
2022/03/25 03:03:13;;;;;;;72.60;23.80;;;;;;;;;;5044191;28;20055;-64
2022/03/25 03:05:39;;;;;;;65.93;26.35;;;;;;;;;;5044310;28;20060;-64
2022/03/25 03:08:06;;;;;;;153.77;29.52;;;;;;;;;;5044722;28;20053;-64
2022/03/25 03:10:32;;;;;;;135.73;27.33;;;;;;;;;;5043717;28;20053;-64
2022/03/25 03:12:59;;;;;;;172.77;28.52;;;;;;;;;;5044287;28;20537;-65
2022/03/25 03:15:25;;;;;;;291.80;31.00;;;;;;;;;;5044588;28;20059;-64
2022/03/25 03:17:51;;;;;;;124.97;25.15;;;;;;;;;;5044597;28;20071;-64
2022/03/25 03:20:19;;;;;;;107.00;24.40;;;;;;;;;;5044488;28;20041;-65
2022/03/25 03:22:45;;;;;;;264.60;28.70;;;;;;;;;;5009648;28;20053;-65
2022/03/25 03:25:11;;;;;;;120.10;24.85;;;;;;;;;;5026091;28;20041;-65
2022/03/25 03:27:38;;;;;;;135.02;26.55;;;;;;;;;;5044077;28;20083;-65
2022/03/25 03:30:05;;;;;;;155.70;27.27;;;;;;;;;;5044362;28;20482;-64
2022/03/25 03:32:31;;;;;;;135.18;26.58;;;;;;;;;;5025823;28;20045;-64
2022/03/25 03:34:58;;;;;;;100.03;23.83;;;;;;;;;;5044301;28;20469;-64
2022/03/25 03:37:25;;;;;;;68.65;22.67;;;;;;;;;;5044597;28;20049;-64
2022/03/25 03:39:51;;;;;;;57.92;24.77;;;;;;;;;;5043857;28;20037;-64
2022/03/25 03:42:17;;;;;;;100.22;23.73;;;;;;;;;;5044254;28;20121;-64
2022/03/25 03:44:43;;;;;;;133.57;28.35;;;;;;;;;;5043429;28;20044;-64
2022/03/25 03:47:10;;;;;;;165.65;30.70;;;;;;;;;;5044239;28;20120;-64
2022/03/25 03:49:37;;;;;;;149.98;26.98;;;;;;;;;;5043700;28;20052;-64
2022/03/25 03:52:04;;;;;;;257.95;29.42;;;;;;;;;;5043858;28;20142;-64
2022/03/25 03:54:30;;;;;;;117.00;27.73;;;;;;;;;;5043073;28;20043;-64
2022/03/25 03:56:57;;;;;;;190.65;30.77;;;;;;;;;;5043193;28;20402;-64
2022/03/25 03:59:23;;;;;;;202.25;29.35;;;;;;;;;;5043807;28;20110;-64
2022/03/25 04:01:49;;;;;;;209.52;29.15;;;;;;;;;;5043638;28;20037;-65
2022/03/25 04:04:16;;;;;;;214.80;32.38;;;;;;;;;;5044131;28;20077;-64
2022/03/25 04:06:42;;;;;;;239.32;28.95;;;;;;;;;;5043374;28;20136;-65
2022/03/25 04:09:09;;;;;;;296.85;31.90;;;;;;;;;;5043077;28;20498;-64
2022/03/25 04:11:35;;;;;;;195.25;26.92;;;;;;;;;;5026018;28;20045;-64
2022/03/25 04:14:01;;;;;;;292.23;31.63;;;;;;;;;;5043368;28;20048;-66
2022/03/25 04:16:29;;;;;;;278.55;32.05;;;;;;;;;;5043495;28;20409;-65
2022/03/25 04:18:55;;;;;;;348.60;38.00;;;;;;;;;;5043993;28;20072;-66
2022/03/25 04:21:21;;;;;;;296.05;32.65;;;;;;;;;;5026375;28;20049;-65
2022/03/25 04:23:47;;;;;;;176.75;24.75;;;;;;;;;;5042654;28;20051;-65
2022/03/25 04:26:13;;;;;;;148.43;25.67;;;;;;;;;;5043683;28;20045;-65
2022/03/25 04:28:40;;;;;;;234.57;31.30;;;;;;;;;;5042936;28;20170;-65
2022/03/25 04:31:06;;;;;;;85.45;22.83;;;;;;;;;;5043723;28;20053;-64
2022/03/25 04:33:34;;;;;;;177.32;26.67;;;;;;;;;;5043647;28;20076;-64
2022/03/25 04:36:01;;;;;;;83.65;21.73;;;;;;;;;;5043489;28;20053;-65
2022/03/25 04:38:28;;;;;;;53.73;20.73;;;;;;;;;;5042617;28;20119;-65
2022/03/25 04:40:54;;;;;;;120.97;21.23;;;;;;;;;;5044108;28;20849;-65
2022/03/25 04:43:20;;;;;;;77.00;21.35;;;;;;;;;;5043412;28;20033;-65
2022/03/25 04:45:47;;;;;;;117.93;22.92;;;;;;;;;;5043245;28;20045;-65
2022/03/25 04:48:14;;;;;;;130.02;22.85;;;;;;;;;;5043776;28;20041;-65
2022/03/25 04:50:41;;;;;;;127.22;23.20;;;;;;;;;;5042796;28;20045;-64
2022/03/25 04:53:07;;;;;;;111.32;24.27;;;;;;;;;;5025781;28;20065;-64
2022/03/25 04:55:33;;;;;;;92.25;22.02;;;;;;;;;;5042223;28;20047;-64
2022/03/25 04:57:59;;;;;;;91.88;22.20;;;;;;;;;;5043153;28;20407;-64
2022/03/25 05:00:26;;;;;;;61.33;22.27;;;;;;;;;;5043230;28;20048;-64
2022/03/25 05:02:52;;;;;;;185.00;27.70;;;;;;;;;;5043510;28;20053;-64
2022/03/25 05:05:19;;;;;;;205.05;25.88;;;;;;;;;;5043306;28;20857;-64
2022/03/25 05:07:46;;;;;;;127.78;22.98;;;;;;;;;;5043416;28;20048;-64
2022/03/25 05:10:13;;;;;;;128.15;24.70;;;;;;;;;;5042095;28;20041;-64
2022/03/25 05:12:40;;;;;;;74.68;22.45;;;;;;;;;;5043709;28;20049;-64
2022/03/25 05:15:06;;;;;;;136.30;24.00;;;;;;;;;;5046742;28;20041;-63
2022/03/25 05:17:32;;;;;;;86.75;22.98;;;;;;;;;;5046542;28;20445;-64
2022/03/25 05:19:58;;;;;;;65.90;23.00;;;;;;;;;;5046967;28;20478;-64
2022/03/25 05:22:26;;;;;;;71.60;22.55;;;;;;;;;;5047051;28;20456;-64
2022/03/25 05:24:52;;;;;;;96.82;23.17;;;;;;;;;;5045666;28;20106;-64
2022/03/25 05:27:18;;;;;;;74.70;23.27;;;;;;;;;;5028607;28;20049;-64
2022/03/25 05:29:44;;;;;;;57.50;22.42;;;;;;;;;;5046413;28;20095;-63
2022/03/25 05:32:11;;;;;;;58.80;23.17;;;;;;;;;;5046586;28;20071;-63
2022/03/25 05:34:37;;;;;;;55.10;23.20;;;;;;;;;;5046199;28;20453;-63
2022/03/25 05:37:03;;;;;;;40.50;21.88;;;;;;;;;;5046697;28;20049;-65
2022/03/25 05:39:29;;;;;;;37.00;20.70;;;;;;;;;;5044963;28;20578;-66
2022/03/25 05:41:56;;;;;;;40.58;20.35;;;;;;;;;;5046407;28;20045;-64
2022/03/25 05:44:22;;;;;;;38.30;21.75;;;;;;;;;;5046743;28;20449;-65
2022/03/25 05:46:48;;;;;;;40.47;20.42;;;;;;;;;;5028281;28;20140;-65
2022/03/25 05:49:14;;;;;;;32.97;19.73;;;;;;;;;;5046313;28;20397;-64
2022/03/25 05:51:40;;;;;;;42.50;21.55;;;;;;;;;;5046057;28;20453;-65
2022/03/25 05:54:07;;;;;;;38.78;20.05;;;;;;;;;;5027023;28;20540;-64
2022/03/25 05:56:33;;;;;;;39.35;20.45;;;;;;;;;;5045844;28;20244;-64
2022/03/25 05:58:59;;;;;;;34.50;19.65;;;;;;;;;;5046076;28;20055;-64
2022/03/25 06:01:25;;;;;;;36.72;21.02;;;;;;;;;;5045747;28;20072;-64
2022/03/25 06:03:52;;;;;;;43.15;22.25;;;;;;;;;;5046150;28;20084;-65
2022/03/25 06:06:18;;;;;;;44.13;21.88;;;;;;;;;;5045393;28;20515;-65
2022/03/25 06:08:45;;;;;;;40.20;21.33;;;;;;;;;;5044495;28;20306;-65
2022/03/25 06:11:11;;;;;;;40.08;21.02;;;;;;;;;;5045797;28;20041;-65
2022/03/25 06:13:37;;;;;;;44.97;22.83;;;;;;;;;;5045379;28;20397;-65
2022/03/25 06:16:03;;;;;;;50.15;24.88;;;;;;;;;;5043707;28;20033;-65
2022/03/25 06:18:29;;;;;;;45.60;22.30;;;;;;;;;;5040898;28;20041;-65
2022/03/25 06:20:55;;;;;;;48.30;22.20;;;;;;;;;;5025649;28;20044;-67
2022/03/25 06:23:22;;;;;;;47.05;23.63;;;;;;;;;;5040308;28;20049;-66
2022/03/25 06:25:48;;;;;;;41.38;20.23;;;;;;;;;;5024492;28;20046;-66
2022/03/25 06:28:14;;;;;;;39.08;22.00;;;;;;;;;;5037238;28;20422;-66
2022/03/25 06:30:40;;;;;;;42.03;22.95;;;;;;;;;;5032790;28;20045;-66
2022/03/25 06:33:09;;;;;;;41.45;22.40;;;;;;;;;;5043087;28;20069;-66
2022/03/25 06:35:36;;;;;;;54.67;23.38;;;;;;;;;;5042453;28;20045;-65
2022/03/25 06:38:04;;;;;;;66.82;23.50;;;;;;;;;;5040277;28;20048;-66
2022/03/25 06:40:30;;;;;;;40.22;22.02;;;;;;;;;;5042040;28;20498;-66
2022/03/25 06:49:33;;;;;;;48.08;23.58;;;;;;;;;;5040293;28;20174;-66
2022/03/25 06:52:00;;;;;;;54.38;26.60;;;;;;;;;;5044163;28;20559;-65
2022/03/25 06:54:26;;;;;;;50.90;25.90;;;;;;;;;;5042838;28;20073;-65
2022/03/25 06:56:52;;;;;;;58.42;27.80;;;;;;;;;;5044215;28;20045;-65
2022/03/25 06:59:20;;;;;;;58.90;27.27;;;;;;;;;;5043047;28;20040;-65
2022/03/25 07:01:46;;;;;;;59.42;28.25;;;;;;;;;;5039360;28;20076;-65
2022/03/25 07:04:13;;;;;;;60.58;28.95;;;;;;;;;;5043672;28;20113;-65
2022/03/25 07:06:39;;;;;;;69.15;28.70;;;;;;;;;;5025200;28;20049;-65
2022/03/25 07:09:05;;;;;;;59.00;27.73;;;;;;;;;;5042534;28;20048;-64
2022/03/25 07:11:33;;;;;;;64.28;28.65;;;;;;;;;;5042986;28;20049;-65
2022/03/25 07:13:59;;;;;;;62.05;28.52;;;;;;;;;;5043598;28;20108;-64
2022/03/25 07:16:25;;;;;;;63.13;29.67;;;;;;;;;;5043409;28;20041;-63
2022/03/25 07:18:52;;;;;;;65.35;28.85;;;;;;;;;;5043432;28;20107;-62
2022/03/25 07:21:18;;;;;;;71.53;29.73;;;;;;;;;;5043533;28;20032;-62
2022/03/25 07:23:44;;;;;;;62.72;29.02;;;;;;;;;;5024787;28;20132;-62
2022/03/25 07:26:10;;;;;;;60.60;29.38;;;;;;;;;;5043543;28;20462;-63
2022/03/25 07:28:36;;;;;;;67.22;31.15;;;;;;;;;;5043227;28;20041;-63
2022/03/25 07:31:02;;;;;;;66.13;29.35;;;;;;;;;;5043235;28;20040;-63
2022/03/25 07:33:29;;;;;;;70.65;30.55;;;;;;;;;;5042886;28;20039;-63
2022/03/25 07:35:56;;;;;;;69.63;29.70;;;;;;;;;;5042600;28;20084;-64
2022/03/25 07:38:22;;;;;;;68.60;30.15;;;;;;;;;;5025063;28;20508;-63
2022/03/25 07:40:48;;;;;;;71.82;30.80;;;;;;;;;;5043356;28;20124;-63
2022/03/25 07:43:14;;;;;;;69.25;29.95;;;;;;;;;;5043018;28;20486;-63
2022/03/25 07:45:41;;;;;;;62.28;28.58;;;;;;;;;;5024789;28;20136;-64
2022/03/25 07:48:07;;;;;;;60.90;28.02;;;;;;;;;;5041225;28;20428;-63
2022/03/25 07:50:33;;;;;;;57.95;27.83;;;;;;;;;;5042597;28;20056;-63
2022/03/25 07:52:59;;;;;;;61.67;28.48;;;;;;;;;;5042639;28;20051;-64
2022/03/25 07:55:26;;;;;;;62.58;28.60;;;;;;;;;;5042150;28;20116;-64
2022/03/25 07:57:52;;;;;;;55.70;27.60;;;;;;;;;;5043516;28;20037;-64
2022/03/25 08:00:19;;;;;;;59.42;28.40;;;;;;;;;;5042820;28;20046;-65
2022/03/25 08:02:46;;;;;;;58.55;27.48;;;;;;;;;;5042882;28;20045;-65
2022/03/25 08:05:13;;;;;;;62.97;29.98;;;;;;;;;;5043046;28;20422;-64
2022/03/25 08:07:40;;;;;;;57.38;27.83;;;;;;;;;;5042403;28;21011;-64
2022/03/25 08:10:06;;;;;;;57.80;27.77;;;;;;;;;;5042016;28;20401;-64
2022/03/25 08:12:32;;;;;;;61.33;27.77;;;;;;;;;;5042414;28;20394;-64
2022/03/25 08:14:59;;;;;;;58.20;28.52;;;;;;;;;;5024806;28;20049;-65
2022/03/25 08:17:25;;;;;;;57.30;27.02;;;;;;;;;;5043168;28;20041;-65
2022/03/25 08:19:51;;;;;;;49.63;24.33;;;;;;;;;;5025149;28;20056;-65
2022/03/25 08:22:18;;;;;;;51.72;25.20;;;;;;;;;;5042786;28;20223;-65
2022/03/25 08:30:14;;;;;;;51.45;24.88;;;;;;;;;;5042462;28;20048;-65
2022/03/25 08:32:41;;;;;;;57.13;22.40;;;;;;;;;;5023568;28;20494;-65
2022/03/25 08:35:08;;;;;;;49.55;23.88;;;;;;;;;;5042662;28;20071;-65
2022/03/25 08:37:34;;;;;;;53.58;24.30;;;;;;;;;;5020843;28;20045;-65
2022/03/25 08:40:03;;;;;;;47.78;23.60;;;;;;;;;;5041303;28;20053;-65
2022/03/25 08:42:29;;;;;;;56.58;24.85;;;;;;;;;;5042520;28;20036;-65
2022/03/25 08:44:56;;;;;;;53.17;24.27;;;;;;;;;;5042601;28;20037;-65
2022/03/25 08:47:22;;;;;;;59.33;24.52;;;;;;;;;;5043201;28;20129;-65
2022/03/25 08:49:48;;;;;;;48.53;23.50;;;;;;;;;;5045863;28;20056;-65
2022/03/25 08:52:14;;;;;;;50.22;23.20;;;;;;;;;;5028386;28;20055;-65
2022/03/25 08:54:41;;;;;;;53.05;24.60;;;;;;;;;;5045298;28;20043;-65
2022/03/25 08:57:08;;;;;;;47.75;23.65;;;;;;;;;;5046136;28;20136;-65
2022/03/25 08:59:34;;;;;;;54.15;22.05;;;;;;;;;;5045798;28;20048;-65
2022/03/25 09:02:00;;;;;;;50.05;23.98;;;;;;;;;;5046208;28;20047;-65
2022/03/25 09:04:28;;;;;;;46.72;22.35;;;;;;;;;;5046269;28;20076;-65
2022/03/25 09:06:54;;;;;;;55.67;24.40;;;;;;;;;;5046324;28;20458;-66
2022/03/25 09:09:20;;;;;;;48.65;22.63;;;;;;;;;;5045454;28;20418;-66
2022/03/25 09:11:46;;;;;;;50.22;23.80;;;;;;;;;;5045636;28;20041;-66
2022/03/25 09:14:14;;;;;;;49.78;22.85;;;;;;;;;;5046186;28;20102;-66
2022/03/25 09:16:40;;;;;;;51.65;23.10;;;;;;;;;;5045201;28;20056;-66
2022/03/25 09:19:07;;;;;;;46.42;22.15;;;;;;;;;;5045713;28;20423;-65
2022/03/25 09:21:33;;;;;;;53.20;23.63;;;;;;;;;;5045725;28;20037;-65
2022/03/25 09:23:59;;;;;;;49.75;24.52;;;;;;;;;;5044977;28;20049;-65
2022/03/25 09:26:25;;;;;;;51.92;23.23;;;;;;;;;;5045460;28;20606;-65
2022/03/25 09:28:51;;;;;;;49.75;24.13;;;;;;;;;;5046107;28;20077;-65
2022/03/25 09:31:18;;;;;;;43.58;22.50;;;;;;;;;;5046067;28;20098;-65
2022/03/25 09:33:45;;;;;;;44.28;22.33;;;;;;;;;;5045187;28;20049;-66
2022/03/25 09:36:11;;;;;;;52.28;23.80;;;;;;;;;;5044789;28;20095;-65
2022/03/25 09:38:37;;;;;;;49.65;23.25;;;;;;;;;;5045042;28;20053;-65
2022/03/25 09:41:05;;;;;;;53.35;23.17;;;;;;;;;;5045580;28;20132;-65
2022/03/25 09:43:32;;;;;;;47.85;23.25;;;;;;;;;;5045070;28;20064;-65
2022/03/25 09:45:58;;;;;;;45.72;22.35;;;;;;;;;;5027678;28;20367;-65
2022/03/25 09:48:24;;;;;;;48.67;23.05;;;;;;;;;;5045949;28;20120;-65
2022/03/25 09:50:50;;;;;;;47.22;22.92;;;;;;;;;;5045208;28;20049;-65
2022/03/25 09:53:17;;;;;;;53.50;22.05;;;;;;;;;;5039925;28;20037;-65
2022/03/25 09:55:46;;;;;;;45.30;21.88;;;;;;;;;;5044788;28;20505;-65
2022/03/25 09:58:18;;;;;;;51.03;21.60;;;;;;;;;;5045379;28;20105;-65
2022/03/25 10:00:48;;;;;;;40.00;20.15;;;;;;;;;;5044924;28;20372;-65
2022/03/25 10:03:22;;;;;;;40.42;20.02;;;;;;;;;;5044827;28;20052;-65
2022/03/25 10:05:55;;;;;;;47.08;21.60;;;;;;;;;;5044875;28;20114;-65
2022/03/25 10:08:30;;;;;;;40.30;19.98;;;;;;;;;;5044655;28;20041;-65
2022/03/25 10:10:56;;;;;;;34.45;17.27;;;;;;;;;;5045197;28;20075;-65
2022/03/25 10:13:22;;;;;;;39.78;19.23;;;;;;;;;;5045152;28;20479;-65
2022/03/25 10:15:48;;;;;;;42.25;20.48;;;;;;;;;;5044579;28;20072;-65
2022/03/25 10:18:19;;;;;;;46.17;20.83;;;;;;;;;;5044966;28;20272;-65
2022/03/25 10:20:45;;;;;;;44.75;20.17;;;;;;;;;;5044205;28;20294;-65
2022/03/25 10:23:12;;;;;;;40.63;19.35;;;;;;;;;;5025700;28;20135;-65
2022/03/25 10:25:47;;;;;;;36.95;18.17;;;;;;;;;;5044157;28;20045;-65
2022/03/25 10:28:34;;;;;;;33.22;17.92;;;;;;;;;;5044472;28;20073;-65
2022/03/25 10:31:02;;;;;;;46.72;18.33;;;;;;;;;;5026567;28;20461;-65
2022/03/25 10:33:34;;;;;;;43.47;17.52;;;;;;;;;;5044125;28;20111;-65
2022/03/25 10:36:04;;;;;;;44.22;18.42;;;;;;;;;;5044467;28;20518;-65
2022/03/25 10:38:41;;;;;;;46.38;18.30;;;;;;;;;;5043334;28;20159;-65
2022/03/25 10:41:08;;;;;;;35.17;15.07;;;;;;;;;;5044771;28;20683;-65
2022/03/25 10:43:34;;;;;;;35.10;15.85;;;;;;;;;;5043964;28;20083;-65
2022/03/25 10:46:00;;;;;;;40.13;15.38;;;;;;;;;;5043763;28;20129;-65
2022/03/25 10:48:27;;;;;;;34.38;16.00;;;;;;;;;;5044076;28;20491;-65
2022/03/25 10:50:56;;;;;;;32.45;14.70;;;;;;;;;;5044346;28;20041;-65
2022/03/25 10:53:23;;;;;;;34.22;15.02;;;;;;;;;;5044055;28;20094;-65
2022/03/25 10:55:54;;;;;;;36.28;16.83;;;;;;;;;;5043821;28;20120;-65
2022/03/25 10:58:20;;;;;;;35.38;15.73;;;;;;;;;;5044506;28;20047;-65
2022/03/25 11:00:47;;;;;;;36.50;16.90;;;;;;;;;;5043655;28;20041;-64
2022/03/25 11:03:14;;;;;;;37.08;15.43;;;;;;;;;;5043694;28;20040;-65
2022/03/25 11:05:41;;;;;;;41.83;17.60;;;;;;;;;;5040776;28;20574;-65
2022/03/25 11:08:07;;;;;;;37.78;17.23;;;;;;;;;;5023316;28;20098;-65
2022/03/25 11:10:33;;;;;;;37.83;18.17;;;;;;;;;;5023231;28;20042;-65
2022/03/25 11:13:02;;;;;;;42.47;17.85;;;;;;;;;;5023736;28;20041;-65
2022/03/25 11:15:30;;;;;;;40.22;17.92;;;;;;;;;;5023364;28;20099;-65
2022/03/25 11:17:56;;;;;;;43.22;18.38;;;;;;;;;;5023590;28;20487;-65
2022/03/25 11:20:24;;;;;;;37.47;18.63;;;;;;;;;;5023741;28;20042;-64
2022/03/25 11:22:52;;;;;;;36.75;17.45;;;;;;;;;;5023360;28;20694;-64
2022/03/25 11:25:22;;;;;;;40.30;18.77;;;;;;;;;;5023674;28;20049;-64
2022/03/25 11:27:53;;;;;;;36.63;18.10;;;;;;;;;;5023292;28;20552;-65
2022/03/25 11:30:20;;;;;;;39.05;17.40;;;;;;;;;;5023529;28;20041;-65
2022/03/25 11:32:58;;;;;;;47.65;20.38;;;;;;;;;;5023788;28;20041;-64
2022/03/25 11:35:24;;;;;;;40.40;18.77;;;;;;;;;;5006068;28;20037;-65
2022/03/25 11:38:09;;;;;;;39.60;19.15;;;;;;;;;;5023084;28;20666;-65
2022/03/25 11:40:36;;;;;;;37.25;18.42;;;;;;;;;;5022508;28;20045;-65
2022/03/25 11:43:12;;;;;;;49.78;19.42;;;;;;;;;;5022844;28;20124;-65
2022/03/25 11:45:38;;;;;;;35.80;17.45;;;;;;;;;;5022069;28;20403;-65
2022/03/25 11:48:04;;;;;;;44.67;19.05;;;;;;;;;;5022687;28;20069;-65
2022/03/25 11:50:32;;;;;;;38.05;19.08;;;;;;;;;;5021499;28;20453;-64
2022/03/25 11:52:59;;;;;;;46.08;19.92;;;;;;;;;;5003920;28;20042;-65
2022/03/25 11:55:25;;;;;;;47.53;19.58;;;;;;;;;;5022191;28;20502;-65
2022/03/25 11:57:52;;;;;;;45.80;19.40;;;;;;;;;;5022709;28;20607;-64
2022/03/25 12:00:23;;;;;;;45.45;19.80;;;;;;;;;;5022558;28;20041;-64
2022/03/25 12:03:01;;;;;;;35.40;17.48;;;;;;;;;;5021768;28;20041;-65
2022/03/25 12:05:28;;;;;;;38.92;18.40;;;;;;;;;;5021331;28;20046;-65
2022/03/25 12:08:12;;;;;;;41.05;17.20;;;;;;;;;;5022289;28;20097;-65
2022/03/25 12:10:45;;;;;;;42.25;18.50;;;;;;;;;;5021854;28;20479;-65
2022/03/25 12:13:11;;;;;;;40.05;18.92;;;;;;;;;;5021787;28;20053;-65
2022/03/25 12:15:42;;;;;;;41.85;17.48;;;;;;;;;;5004068;28;20226;-65
2022/03/25 12:18:27;;;;;;;33.03;16.05;;;;;;;;;;5021921;28;20033;-65
2022/03/25 12:20:53;;;;;;;37.70;16.20;;;;;;;;;;5022140;28;20049;-65
2022/03/25 12:23:19;;;;;;;36.78;16.95;;;;;;;;;;5023628;28;20041;-65
2022/03/25 12:25:45;;;;;;;38.00;17.73;;;;;;;;;;5009213;28;20052;-65
2022/03/25 12:28:11;;;;;;;44.63;18.52;;;;;;;;;;5026508;28;20037;-66
2022/03/25 12:30:38;;;;;;;43.72;18.10;;;;;;;;;;5026007;28;20438;-64
2022/03/25 12:33:08;;;;;;;44.05;17.65;;;;;;;;;;5008270;28;20057;-65
2022/03/25 12:35:37;;;;;;;38.00;18.23;;;;;;;;;;5025373;28;20030;-65
2022/03/25 12:38:14;;;;;;;33.58;17.10;;;;;;;;;;5026353;28;20488;-65
2022/03/25 12:40:41;;;;;;;38.08;16.38;;;;;;;;;;5026833;28;20050;-65
2022/03/25 12:43:11;;;;;;;34.28;17.15;;;;;;;;;;5026870;28;20047;-65
2022/03/25 12:45:38;;;;;;;35.08;15.32;;;;;;;;;;5026219;28;20045;-65
2022/03/25 12:48:09;;;;;;;34.53;15.02;;;;;;;;;;5026402;28;20602;-65
2022/03/25 12:50:35;;;;;;;32.83;15.23;;;;;;;;;;5025963;28;20081;-65
2022/03/25 12:53:02;;;;;;;37.30;16.50;;;;;;;;;;5025664;28;20071;-65
2022/03/25 12:55:30;;;;;;;37.85;16.75;;;;;;;;;;5026037;28;20033;-65
2022/03/25 12:58:01;;;;;;;37.30;15.75;;;;;;;;;;5008838;28;20052;-65
2022/03/25 13:00:32;;;;;;;35.75;13.60;;;;;;;;;;5021815;28;20041;-65
2022/03/25 13:02:58;;;;;;;29.88;13.73;;;;;;;;;;5026441;28;20317;-65
2022/03/25 13:05:25;;;;;;;34.03;14.65;;;;;;;;;;5026382;28;20403;-65
2022/03/25 13:07:54;;;;;;;31.45;13.13;;;;;;;;;;5025564;28;20514;-65
2022/03/25 13:10:20;;;;;;;;;;;;;;;;;;5026815;28;20045;-66
2022/03/25 13:12:53;;;;;;;34.28;12.65;;;;;;;;;;5025977;28;19925;-65
2022/03/25 13:15:30;;;;;;;32.78;13.20;;;;;;;;;;5026045;28;20041;-65
2022/03/25 13:17:58;;;;;;;29.48;12.80;;;;;;;;;;5008168;28;20054;-66
2022/03/25 13:20:27;;;;;;;25.40;12.30;;;;;;;;;;5026587;28;20132;-65
2022/03/25 13:22:54;;;;;;;26.38;11.25;;;;;;;;;;5022573;28;20103;-65
2022/03/25 13:25:28;;;;;;;30.60;11.65;;;;;;;;;;5021107;28;20136;-65
2022/03/25 13:27:55;;;;;;;26.98;10.93;;;;;;;;;;5024733;28;20135;-65
2022/03/25 13:30:22;;;;;;;29.35;11.07;;;;;;;;;;5025901;28;20038;-65
2022/03/25 13:32:58;;;;;;;22.50;9.40;;;;;;;;;;5021973;28;20526;-66
2022/03/25 13:35:31;;;;;;;29.25;9.80;;;;;;;;;;5025607;28;20390;-65
2022/03/25 13:37:58;;;;;;;24.05;9.73;;;;;;;;;;5024304;28;20131;-66
2022/03/25 13:40:28;;;;;;;25.48;9.25;;;;;;;;;;5025792;28;20431;-65
2022/03/25 13:42:55;;;;;;;23.92;9.60;;;;;;;;;;5025884;28;20077;-66
2022/03/25 13:45:22;;;;;;;18.85;9.02;;;;;;;;;;5025842;28;20089;-66
2022/03/25 13:48:05;;;;;;;23.13;8.93;;;;;;;;;;5025393;28;20075;-66
2022/03/25 13:50:32;;;;;;;24.02;9.52;;;;;;;;;;5024036;28;20049;-65
2022/03/25 13:53:00;;;;;;;22.50;8.55;;;;;;;;;;5024785;28;20060;-66
2022/03/25 13:55:31;;;;;;;22.58;8.98;;;;;;;;;;5025118;28;20129;-65
2022/03/25 13:57:58;;;;;;;25.08;8.40;;;;;;;;;;5025237;28;20100;-66
2022/03/25 14:00:32;;;;;;;21.08;7.57;;;;;;;;;;5025522;28;20048;-66
2022/03/25 14:02:59;;;;;;;19.90;6.90;;;;;;;;;;5024922;28;20041;-66
2022/03/25 14:05:25;;;;;;;19.80;7.82;;;;;;;;;;5024452;28;20045;-66
2022/03/25 14:07:54;;;;;;;21.90;8.85;;;;;;;;;;5024790;28;20141;-66
2022/03/25 14:10:20;;;;;;;22.92;8.35;;;;;;;;;;5025495;28;20045;-66
2022/03/25 14:12:56;;;;;;;21.23;7.55;;;;;;;;;;5024593;28;20128;-66
2022/03/25 14:15:25;;;;;;;23.55;8.90;;;;;;;;;;5025094;28;20043;-66
2022/03/25 14:17:52;;;;;;;19.58;8.13;;;;;;;;;;5025339;28;20049;-66
2022/03/25 14:20:20;;;;;;;20.67;8.57;;;;;;;;;;5024838;28;20045;-66
2022/03/25 14:22:47;;;;;;;30.20;9.93;;;;;;;;;;5015238;28;20042;-66
2022/03/25 14:25:14;;;;;;;20.00;8.82;;;;;;;;;;5024643;28;20293;-66
2022/03/25 14:27:44;;;;;;;20.83;7.93;;;;;;;;;;5024524;28;20064;-66
2022/03/25 14:30:11;;;;;;;19.55;8.18;;;;;;;;;;5021130;28;20033;-66